Terminal Aerodrome Forecast
Issued by NWS Nashville, TN

Home | Current Version | Previous Version | Text Only | Print | Product List | Glossary On
Versions: 1 2 3 4 5 6 7 8 9 10 11 12 13 14 15 16
000
FTUS44 KOHX 271132
TAFBNA
TAF
KBNA 271132Z 2712/2812 00000KT P6SM SCT250
     FM271300 17006KT P6SM SCT050 BKN250 PROB30 2722/2802 6SM -TSRA
      BKN050CB
     FM280200 VRB02KT P6SM SCT060 BKN250
     FM281000 10002KT 4SM BR SCT250=

USA.gov is the U.S. government's official web portal to all federal, state and local government web resources and services.